sensor_id;sensor_type;location;lat;lon;timestamp;pressure;altitude;pressure_sealevel;temperature;humidity
65173;BME280;51758;52.218;5.172;2022-07-23T00:01:07;101882.06;;;16.54;78.80
65173;BME280;51758;52.218;5.172;2022-07-23T00:03:35;101877.34;;;16.49;78.38
65173;BME280;51758;52.218;5.172;2022-07-23T00:06:03;101879.94;;;16.42;78.97
65173;BME280;51758;52.218;5.172;2022-07-23T00:08:35;101875.31;;;16.44;78.75
65173;BME280;51758;52.218;5.172;2022-07-23T00:11:03;101856.31;;;16.28;78.80
65173;BME280;51758;52.218;5.172;2022-07-23T00:13:32;101825.56;;;16.07;79.08
65173;BME280;51758;52.218;5.172;2022-07-23T00:15:59;101865.94;;;16.42;79.56
65173;BME280;51758;52.218;5.172;2022-07-23T00:18:27;101873.59;;;16.37;79.76
65173;BME280;51758;52.218;5.172;2022-07-23T00:20:55;101854.81;;;16.19;79.74
65173;BME280;51758;52.218;5.172;2022-07-23T00:23:22;101863.72;;;16.18;79.75
65173;BME280;51758;52.218;5.172;2022-07-23T00:25:51;101865.34;;;16.19;79.98
65173;BME280;51758;52.218;5.172;2022-07-23T00:28:19;101869.00;;;16.18;79.85
65173;BME280;51758;52.218;5.172;2022-07-23T00:30:48;101865.91;;;16.14;79.68
65173;BME280;51758;52.218;5.172;2022-07-23T00:33:16;101866.47;;;16.09;79.74
65173;BME280;51758;52.218;5.172;2022-07-23T00:35:44;101866.25;;;16.04;80.12
65173;BME280;51758;52.218;5.172;2022-07-23T00:38:11;101860.97;;;16.04;80.21
65173;BME280;51758;52.218;5.172;2022-07-23T00:40:39;101855.09;;;16.02;80.36
65173;BME280;51758;52.218;5.172;2022-07-23T00:43:07;101847.38;;;16.01;80.56
65173;BME280;51758;52.218;5.172;2022-07-23T00:45:35;101855.09;;;16.02;80.77
65173;BME280;51758;52.218;5.172;2022-07-23T00:48:04;101852.81;;;15.99;81.09
65173;BME280;51758;52.218;5.172;2022-07-23T00:50:32;101853.81;;;15.98;80.89
65173;BME280;51758;52.218;5.172;2022-07-23T00:53:00;101854.22;;;15.95;81.24
65173;BME280;51758;52.218;5.172;2022-07-23T00:55:28;101847.50;;;15.93;81.28
65173;BME280;51758;52.218;5.172;2022-07-23T00:57:55;101845.25;;;15.90;81.70
65173;BME280;51758;52.218;5.172;2022-07-23T01:00:24;101839.72;;;15.85;81.77
65173;BME280;51758;52.218;5.172;2022-07-23T01:02:52;101836.66;;;15.81;82.05
65173;BME280;51758;52.218;5.172;2022-07-23T01:05:21;101837.22;;;15.76;82.15
65173;BME280;51758;52.218;5.172;2022-07-23T01:07:50;101847.94;;;15.75;81.93
65173;BME280;51758;52.218;5.172;2022-07-23T01:10:22;101844.66;;;15.73;82.20
65173;BME280;51758;52.218;5.172;2022-07-23T01:13:00;101842.44;;;15.70;82.26
65173;BME280;51758;52.218;5.172;2022-07-23T01:15:29;101837.53;;;15.67;82.42
65173;BME280;51758;52.218;5.172;2022-07-23T01:17:56;101830.00;;;15.64;82.65
65173;BME280;51758;52.218;5.172;2022-07-23T01:20:26;101825.91;;;15.61;83.02
65173;BME280;51758;52.218;5.172;2022-07-23T01:22:55;101820.47;;;15.63;82.94
65173;BME280;51758;52.218;5.172;2022-07-23T01:25:23;101826.09;;;15.60;82.99
65173;BME280;51758;52.218;5.172;2022-07-23T01:27:52;101823.47;;;15.60;83.04
65173;BME280;51758;52.218;5.172;2022-07-23T01:30:20;101820.59;;;15.55;83.00
65173;BME280;51758;52.218;5.172;2022-07-23T01:32:48;101819.59;;;15.56;83.06
65173;BME280;51758;52.218;5.172;2022-07-23T01:35:15;101814.34;;;15.56;83.00
65173;BME280;51758;52.218;5.172;2022-07-23T01:37:43;101823.94;;;15.49;83.25
65173;BME280;51758;52.218;5.172;2022-07-23T01:40:12;101820.88;;;15.45;83.42
65173;BME280;51758;52.218;5.172;2022-07-23T01:42:40;101813.59;;;15.47;83.74
65173;BME280;51758;52.218;5.172;2022-07-23T01:45:08;101818.03;;;15.47;83.51
65173;BME280;51758;52.218;5.172;2022-07-23T01:47:36;101812.72;;;15.40;83.77
65173;BME280;51758;52.218;5.172;2022-07-23T01:50:04;101815.97;;;15.42;84.01
65173;BME280;51758;52.218;5.172;2022-07-23T01:52:32;101819.97;;;15.38;84.06
65173;BME280;51758;52.218;5.172;2022-07-23T01:55:00;101821.59;;;15.39;83.80
65173;BME280;51758;52.218;5.172;2022-07-23T01:57:29;101827.06;;;15.37;83.75
65173;BME280;51758;52.218;5.172;2022-07-23T01:59:57;101825.78;;;15.33;83.92
65173;BME280;51758;52.218;5.172;2022-07-23T02:02:25;101821.72;;;15.31;84.43
65173;BME280;51758;52.218;5.172;2022-07-23T02:04:53;101818.09;;;15.32;84.16
65173;BME280;51758;52.218;5.172;2022-07-23T02:07:20;101815.00;;;15.28;84.27
65173;BME280;51758;52.218;5.172;2022-07-23T02:09:48;101814.00;;;15.29;84.19
65173;BME280;51758;52.218;5.172;2022-07-23T02:12:16;101816.00;;;15.27;84.12
65173;BME280;51758;52.218;5.172;2022-07-23T02:14:45;101820.47;;;15.27;84.21
65173;BME280;51758;52.218;5.172;2022-07-23T02:17:12;101819.81;;;15.25;84.02
65173;BME280;51758;52.218;5.172;2022-07-23T02:19:40;101814.91;;;15.22;84.28
65173;BME280;51758;52.218;5.172;2022-07-23T02:22:08;101812.47;;;15.20;84.46
65173;BME280;51758;52.218;5.172;2022-07-23T02:24:35;101814.69;;;15.17;84.77
65173;BME280;51758;52.218;5.172;2022-07-23T02:27:03;101817.94;;;15.19;84.52
65173;BME280;51758;52.218;5.172;2022-07-23T02:29:31;101803.53;;;15.15;84.62
65173;BME280;51758;52.218;5.172;2022-07-23T02:32:00;101814.03;;;15.15;84.72
65173;BME280;51758;52.218;5.172;2022-07-23T02:34:27;101808.31;;;15.11;84.85
65173;BME280;51758;52.218;5.172;2022-07-23T02:36:55;101815.41;;;15.11;84.83
65173;BME280;51758;52.218;5.172;2022-07-23T02:39:23;101823.84;;;15.06;85.05
65173;BME280;51758;52.218;5.172;2022-07-23T02:41:50;101826.50;;;15.06;84.65
65173;BME280;51758;52.218;5.172;2022-07-23T02:44:18;101829.47;;;15.03;84.58
65173;BME280;51758;52.218;5.172;2022-07-23T02:46:46;101828.84;;;15.01;84.56
65173;BME280;51758;52.218;5.172;2022-07-23T02:49:15;101832.47;;;15.00;84.70
65173;BME280;51758;52.218;5.172;2022-07-23T02:51:42;101836.09;;;14.99;85.00
65173;BME280;51758;52.218;5.172;2022-07-23T02:54:10;101839.28;;;14.94;85.10
65173;BME280;51758;52.218;5.172;2022-07-23T02:56:38;101838.47;;;14.94;85.08
65173;BME280;51758;52.218;5.172;2022-07-23T02:59:05;101845.25;;;14.88;85.68
65173;BME280;51758;52.218;5.172;2022-07-23T03:01:33;101854.97;;;14.88;85.92
65173;BME280;51758;52.218;5.172;2022-07-23T03:04:01;101841.16;;;14.86;85.97
65173;BME280;51758;52.218;5.172;2022-07-23T03:06:30;101846.44;;;14.86;86.22
65173;BME280;51758;52.218;5.172;2022-07-23T03:08:58;101841.91;;;14.80;85.88
65173;BME280;51758;52.218;5.172;2022-07-23T03:11:26;101843.53;;;14.81;86.03
65173;BME280;51758;52.218;5.172;2022-07-23T03:13:53;101853.84;;;14.82;85.96
65173;BME280;51758;52.218;5.172;2022-07-23T03:16:21;101849.97;;;14.78;85.78
65173;BME280;51758;52.218;5.172;2022-07-23T03:18:49;101849.97;;;14.78;86.37
65173;BME280;51758;52.218;5.172;2022-07-23T03:21:17;101839.53;;;14.85;86.55
65173;BME280;51758;52.218;5.172;2022-07-23T03:23:46;101847.88;;;14.88;86.71
65173;BME280;51758;52.218;5.172;2022-07-23T03:26:13;101851.97;;;14.91;86.65
65173;BME280;51758;52.218;5.172;2022-07-23T03:28:41;101847.34;;;14.93;87.01
65173;BME280;51758;52.218;5.172;2022-07-23T03:31:09;101853.84;;;14.97;86.80
65173;BME280;51758;52.218;5.172;2022-07-23T03:33:36;101847.44;;;14.99;86.68
65173;BME280;51758;52.218;5.172;2022-07-23T03:36:05;101851.34;;;15.03;86.75
65173;BME280;51758;52.218;5.172;2022-07-23T03:38:35;101851.16;;;15.05;86.51
65173;BME280;51758;52.218;5.172;2022-07-23T03:41:04;101842.88;;;15.08;86.70
65173;BME280;51758;52.218;5.172;2022-07-23T03:43:33;101849.59;;;15.11;86.71
65173;BME280;51758;52.218;5.172;2022-07-23T03:46:00;101839.81;;;15.04;86.58
65173;BME280;51758;52.218;5.172;2022-07-23T03:48:28;101839.00;;;15.04;86.97
65173;BME280;51758;52.218;5.172;2022-07-23T03:50:56;101838.19;;;15.03;86.66
65173;BME280;51758;52.218;5.172;2022-07-23T03:53:24;101826.22;;;15.01;86.54
65173;BME280;51758;52.218;5.172;2022-07-23T03:55:51;101830.84;;;14.99;86.60
65173;BME280;51758;52.218;5.172;2022-07-23T03:58:20;101834.47;;;14.98;87.25
65173;BME280;51758;52.218;5.172;2022-07-23T04:00:48;101822.75;;;15.00;86.61
65173;BME280;51758;52.218;5.172;2022-07-23T04:03:16;101827.22;;;15.00;86.66
65173;BME280;51758;52.218;5.172;2022-07-23T04:05:44;101814.06;;;15.00;86.42
65173;BME280;51758;52.218;5.172;2022-07-23T04:08:11;101821.59;;;15.03;86.45
65173;BME280;51758;52.218;5.172;2022-07-23T04:10:39;101818.69;;;14.98;86.21
65173;BME280;51758;52.218;5.172;2022-07-23T04:13:06;101827.84;;;15.02;86.29
65173;BME280;51758;52.218;5.172;2022-07-23T04:15:35;101832.47;;;15.00;86.58
65173;BME280;51758;52.218;5.172;2022-07-23T04:18:04;101832.81;;;14.97;86.75
65173;BME280;51758;52.218;5.172;2022-07-23T04:20:32;101844.97;;;14.98;86.48
65173;BME280;51758;52.218;5.172;2022-07-23T04:23:06;101842.00;;;15.01;86.38
65173;BME280;51758;52.218;5.172;2022-07-23T04:25:33;101843.63;;;15.02;86.35
65173;BME280;51758;52.218;5.172;2022-07-23T04:28:01;101842.53;;;14.96;86.46
65173;BME280;51758;52.218;5.172;2022-07-23T04:30:29;101840.53;;;14.98;86.56
65173;BME280;51758;52.218;5.172;2022-07-23T04:32:58;101844.16;;;14.97;86.88
65173;BME280;51758;52.218;5.172;2022-07-23T04:35:26;101837.66;;;14.93;86.73
65173;BME280;51758;52.218;5.172;2022-07-23T04:37:54;101835.28;;;14.98;86.84
65173;BME280;51758;52.218;5.172;2022-07-23T04:40:21;101845.91;;;15.05;86.52
65173;BME280;51758;52.218;5.172;2022-07-23T04:42:49;101850.16;;;15.06;86.90
65173;BME280;51758;52.218;5.172;2022-07-23T04:45:17;101848.88;;;15.02;86.90
65173;BME280;51758;52.218;5.172;2022-07-23T04:47:45;101845.44;;;15.01;87.01
65173;BME280;51758;52.218;5.172;2022-07-23T04:50:14;101857.06;;;15.07;86.97
65173;BME280;51758;52.218;5.172;2022-07-23T04:52:47;101856.31;;;14.98;87.57
65173;BME280;51758;52.218;5.172;2022-07-23T04:55:16;101851.69;;;15.00;86.97
65173;BME280;51758;52.218;5.172;2022-07-23T04:57:44;101854.78;;;15.04;87.29
65173;BME280;51758;52.218;5.172;2022-07-23T05:00:12;101861.28;;;15.08;87.19
65173;BME280;51758;52.218;5.172;2022-07-23T05:02:40;101861.91;;;15.10;87.07
65173;BME280;51758;52.218;5.172;2022-07-23T05:05:08;101860.38;;;15.16;86.47
65173;BME280;51758;52.218;5.172;2022-07-23T05:07:37;101861.66;;;15.20;86.35
65173;BME280;51758;52.218;5.172;2022-07-23T05:10:05;101859.28;;;15.25;86.24
65173;BME280;51758;52.218;5.172;2022-07-23T05:12:33;101845.78;;;15.28;85.79
65173;BME280;51758;52.218;5.172;2022-07-23T05:15:00;101852.72;;;15.35;85.73
65173;BME280;51758;52.218;5.172;2022-07-23T05:17:28;101853.19;;;15.39;85.89
65173;BME280;51758;52.218;5.172;2022-07-23T05:19:56;101855.88;;;15.46;85.62
65173;BME280;51758;52.218;5.172;2022-07-23T05:22:26;101856.78;;;15.53;85.13
65173;BME280;51758;52.218;5.172;2022-07-23T05:24:56;101853.41;;;15.59;85.29
65173;BME280;51758;52.218;5.172;2022-07-23T05:27:23;101850.25;;;15.63;85.41
65173;BME280;51758;52.218;5.172;2022-07-23T05:29:51;101860.84;;;15.70;84.94
65173;BME280;51758;52.218;5.172;2022-07-23T05:32:19;101839.34;;;15.66;84.74
65173;BME280;51758;52.218;5.172;2022-07-23T05:34:46;101857.22;;;15.92;84.55
65173;BME280;51758;52.218;5.172;2022-07-23T05:37:14;101865.25;;;16.05;84.76
65173;BME280;51758;52.218;5.172;2022-07-23T05:39:42;101874.00;;;16.12;84.63
65173;BME280;51758;52.218;5.172;2022-07-23T05:42:10;101877.72;;;16.18;84.85
65173;BME280;51758;52.218;5.172;2022-07-23T05:44:38;101878.53;;;16.19;84.54
65173;BME280;51758;52.218;5.172;2022-07-23T05:47:06;101872.25;;;16.20;84.02
65173;BME280;51758;52.218;5.172;2022-07-23T05:49:33;101873.91;;;16.21;83.58
65173;BME280;51758;52.218;5.172;2022-07-23T05:52:03;101874.91;;;16.20;83.70
65173;BME280;51758;52.218;5.172;2022-07-23T05:54:33;101878.91;;;16.16;84.01
65173;BME280;51758;52.218;5.172;2022-07-23T05:57:01;101884.81;;;16.18;84.08
65173;BME280;51758;52.218;5.172;2022-07-23T05:59:30;101892.44;;;16.12;84.21
65173;BME280;51758;52.218;5.172;2022-07-23T06:01:58;101886.72;;;16.09;85.13
65173;BME280;51758;52.218;5.172;2022-07-23T06:04:26;101886.50;;;16.04;85.61
65173;BME280;51758;52.218;5.172;2022-07-23T06:06:53;101888.00;;;16.13;85.90
65173;BME280;51758;52.218;5.172;2022-07-23T06:09:21;101884.81;;;16.18;85.41
65173;BME280;51758;52.218;5.172;2022-07-23T06:11:49;101893.81;;;16.30;85.03
65173;BME280;51758;52.218;5.172;2022-07-23T06:14:16;101892.88;;;16.37;84.35
65173;BME280;51758;52.218;5.172;2022-07-23T06:16:45;101879.75;;;16.44;83.78
65173;BME280;51758;52.218;5.172;2022-07-23T06:19:13;101875.72;;;16.48;83.34
65173;BME280;51758;52.218;5.172;2022-07-23T06:21:40;101881.56;;;16.65;83.12
65173;BME280;51758;52.218;5.172;2022-07-23T06:24:13;101879.91;;;16.64;83.22
65173;BME280;51758;52.218;5.172;2022-07-23T06:26:41;101881.25;;;16.81;82.12
65173;BME280;51758;52.218;5.172;2022-07-23T06:29:08;101885.59;;;16.95;81.57
65173;BME280;51758;52.218;5.172;2022-07-23T06:31:36;101872.47;;;16.74;80.46
65173;BME280;51758;52.218;5.172;2022-07-23T06:34:05;101884.19;;;16.99;80.74
65173;BME280;51758;52.218;5.172;2022-07-23T06:36:33;101894.09;;;17.32;80.48
65173;BME280;51758;52.218;5.172;2022-07-23T06:39:01;101894.00;;;17.60;79.05
65173;BME280;51758;52.218;5.172;2022-07-23T06:41:31;101881.06;;;17.78;77.41
65173;BME280;51758;52.218;5.172;2022-07-23T06:43:58;101887.63;;;18.08;76.49
65173;BME280;51758;52.218;5.172;2022-07-23T06:46:26;101888.66;;;18.47;75.82
65173;BME280;51758;52.218;5.172;2022-07-23T06:48:53;101887.00;;;18.85;75.19
65173;BME280;51758;52.218;5.172;2022-07-23T06:51:23;101885.25;;;19.17;73.99
65173;BME280;51758;52.218;5.172;2022-07-23T06:53:50;101890.09;;;19.27;71.48
65173;BME280;51758;52.218;5.172;2022-07-23T06:56:18;101888.72;;;19.24;70.74
65173;BME280;51758;52.218;5.172;2022-07-23T06:58:45;101892.19;;;19.25;70.09
65173;BME280;51758;52.218;5.172;2022-07-23T07:01:13;101893.88;;;19.00;69.54
65173;BME280;51758;52.218;5.172;2022-07-23T07:03:41;101894.63;;;19.13;69.43
65173;BME280;51758;52.218;5.172;2022-07-23T07:06:08;101894.44;;;19.15;68.37
65173;BME280;51758;52.218;5.172;2022-07-23T07:08:37;101883.88;;;19.08;67.72
65173;BME280;51758;52.218;5.172;2022-07-23T07:11:05;101895.66;;;19.19;66.26
65173;BME280;51758;52.218;5.172;2022-07-23T07:13:34;101897.28;;;19.13;66.39
65173;BME280;51758;52.218;5.172;2022-07-23T07:16:02;101890.16;;;19.14;66.88
65173;BME280;51758;52.218;5.172;2022-07-23T07:18:30;101885.25;;;19.17;66.70
65173;BME280;51758;52.218;5.172;2022-07-23T07:20:58;101896.47;;;19.13;67.45
65173;BME280;51758;52.218;5.172;2022-07-23T07:23:25;101897.63;;;19.30;67.58
65173;BME280;51758;52.218;5.172;2022-07-23T07:25:54;101906.78;;;19.34;67.17
65173;BME280;51758;52.218;5.172;2022-07-23T07:28:22;101900.22;;;19.43;65.25
65173;BME280;51758;52.218;5.172;2022-07-23T07:30:50;101904.81;;;19.74;66.06
65173;BME280;51758;52.218;5.172;2022-07-23T07:33:17;101908.94;;;19.95;65.17
65173;BME280;51758;52.218;5.172;2022-07-23T07:35:45;101912.44;;;20.20;65.26
65173;BME280;51758;52.218;5.172;2022-07-23T07:38:13;101914.97;;;20.33;62.71
65173;BME280;51758;52.218;5.172;2022-07-23T07:40:41;101923.41;;;20.55;61.74
65173;BME280;51758;52.218;5.172;2022-07-23T07:43:10;101915.00;;;20.58;60.67
65173;BME280;51758;52.218;5.172;2022-07-23T07:45:37;101914.38;;;20.81;61.01
65173;BME280;51758;52.218;5.172;2022-07-23T07:48:05;101918.28;;;20.35;60.11
65173;BME280;51758;52.218;5.172;2022-07-23T07:50:33;101915.47;;;20.73;61.52
65173;BME280;51758;52.218;5.172;2022-07-23T07:53:01;101909.88;;;21.18;60.73
65173;BME280;51758;52.218;5.172;2022-07-23T07:55:28;101901.78;;;21.13;58.42
65173;BME280;51758;52.218;5.172;2022-07-23T07:57:57;101911.06;;;21.40;56.93
65173;BME280;51758;52.218;5.172;2022-07-23T08:00:29;101905.28;;;21.62;59.71
65173;BME280;51758;52.218;5.172;2022-07-23T08:02:58;101919.41;;;22.04;59.78
65173;BME280;51758;52.218;5.172;2022-07-23T08:05:29;101916.81;;;22.15;56.84
65173;BME280;51758;52.218;5.172;2022-07-23T08:07:58;101921.94;;;22.40;56.98
65173;BME280;51758;52.218;5.172;2022-07-23T08:10:27;101925.19;;;22.54;54.23
65173;BME280;51758;52.218;5.172;2022-07-23T08:12:56;101922.25;;;21.91;54.42
65173;BME280;51758;52.218;5.172;2022-07-23T08:15:25;101918.44;;;22.28;54.81
65173;BME280;51758;52.218;5.172;2022-07-23T08:17:55;101918.56;;;22.68;53.16
65173;BME280;51758;52.218;5.172;2022-07-23T08:20:23;101914.63;;;22.71;52.94
65173;BME280;51758;52.218;5.172;2022-07-23T08:22:55;101923.19;;;22.61;54.29
65173;BME280;51758;52.218;5.172;2022-07-23T08:25:24;101914.81;;;23.28;52.96
65173;BME280;51758;52.218;5.172;2022-07-23T08:27:52;101920.91;;;23.40;50.20
65173;BME280;51758;52.218;5.172;2022-07-23T08:30:21;101921.44;;;23.82;53.07
65173;BME280;51758;52.218;5.172;2022-07-23T08:32:54;101919.03;;;23.97;50.07
65173;BME280;51758;52.218;5.172;2022-07-23T08:35:24;101920.91;;;24.13;47.29
65173;BME280;51758;52.218;5.172;2022-07-23T08:37:52;101913.56;;;23.47;49.09
65173;BME280;51758;52.218;5.172;2022-07-23T08:40:20;101913.56;;;24.04;50.88
65173;BME280;51758;52.218;5.172;2022-07-23T08:42:48;101916.16;;;24.32;48.73
65173;BME280;51758;52.218;5.172;2022-07-23T08:45:18;101924.03;;;24.77;50.50
65173;BME280;51758;52.218;5.172;2022-07-23T08:50:21;101916.72;;;25.06;46.68
65173;BME280;51758;52.218;5.172;2022-07-23T08:52:50;101918.34;;;25.34;45.00
65173;BME280;51758;52.218;5.172;2022-07-23T08:55:19;101927.03;;;25.19;44.34
65173;BME280;51758;52.218;5.172;2022-07-23T08:57:48;101926.13;;;25.35;48.45
65173;BME280;51758;52.218;5.172;2022-07-23T09:00:17;101923.88;;;25.49;45.73
65173;BME280;51758;52.218;5.172;2022-07-23T09:02:46;101932.75;;;25.77;47.18
65173;BME280;51758;52.218;5.172;2022-07-23T09:05:15;101923.34;;;25.74;43.37
65173;BME280;51758;52.218;5.172;2022-07-23T09:08:06;101927.88;;;23.69;46.95
65173;BME280;51758;52.218;5.172;2022-07-23T09:10:43;101928.06;;;24.41;48.59
65173;BME280;51758;52.218;5.172;2022-07-23T09:13:34;101934.06;;;25.52;47.79
65173;BME280;51758;52.218;5.172;2022-07-23T09:16:06;101934.19;;;26.16;47.27
65173;BME280;51758;52.218;5.172;2022-07-23T09:18:39;101926.47;;;26.62;46.00
65173;BME280;51758;52.218;5.172;2022-07-23T09:21:16;101914.53;;;26.80;44.50
65173;BME280;51758;52.218;5.172;2022-07-23T09:23:48;101922.38;;;26.91;41.65
65173;BME280;51758;52.218;5.172;2022-07-23T09:26:21;101936.47;;;26.76;42.16
65173;BME280;51758;52.218;5.172;2022-07-23T09:28:57;101937.81;;;26.74;40.21
65173;BME280;51758;52.218;5.172;2022-07-23T09:31:27;101941.81;;;26.34;37.37
65173;BME280;51758;52.218;5.172;2022-07-23T09:34:07;101938.03;;;25.98;42.71
65173;BME280;51758;52.218;5.172;2022-07-23T09:36:35;101935.94;;;26.32;42.01
65173;BME280;51758;52.218;5.172;2022-07-23T09:39:06;101942.13;;;25.30;40.54
65173;BME280;51758;52.218;5.172;2022-07-23T09:41:36;101939.06;;;25.65;41.72
65173;BME280;51758;52.218;5.172;2022-07-23T09:44:09;101936.28;;;25.60;42.99
65173;BME280;51758;52.218;5.172;2022-07-23T09:46:37;101939.06;;;24.28;44.88
65173;BME280;51758;52.218;5.172;2022-07-23T09:49:15;101932.84;;;25.38;47.03
65173;BME280;51758;52.218;5.172;2022-07-23T09:51:53;101940.91;;;26.24;42.99
65173;BME280;51758;52.218;5.172;2022-07-23T09:54:26;101926.22;;;26.26;43.13
65173;BME280;51758;52.218;5.172;2022-07-23T09:56:55;101929.34;;;26.45;43.71
65173;BME280;51758;52.218;5.172;2022-07-23T09:59:26;101938.16;;;26.14;42.25
65173;BME280;51758;52.218;5.172;2022-07-23T10:01:55;101928.28;;;25.82;43.88
65173;BME280;51758;52.218;5.172;2022-07-23T10:04:28;101928.69;;;26.28;44.11
65173;BME280;51758;52.218;5.172;2022-07-23T10:06:57;101936.25;;;26.41;44.31
65173;BME280;51758;52.218;5.172;2022-07-23T10:09:29;101936.78;;;26.38;42.44
65173;BME280;51758;52.218;5.172;2022-07-23T10:12:00;101931.94;;;25.76;46.57
65173;BME280;51758;52.218;5.172;2022-07-23T10:14:47;101923.91;;;26.35;48.18
65173;BME280;51758;52.218;5.172;2022-07-23T10:17:15;101934.09;;;26.85;45.51
65173;BME280;51758;52.218;5.172;2022-07-23T10:19:43;101934.91;;;27.33;44.24
65173;BME280;51758;52.218;5.172;2022-07-23T10:22:14;101892.19;;;27.06;42.01
65173;BME280;51758;52.218;5.172;2022-07-23T10:24:53;101927.66;;;27.38;42.88
65173;BME280;51758;52.218;5.172;2022-07-23T10:27:50;101926.16;;;27.68;44.88
65173;BME280;51758;52.218;5.172;2022-07-23T10:30:22;101927.13;;;27.41;46.41
65173;BME280;51758;52.218;5.172;2022-07-23T10:33:03;101927.78;;;27.94;44.05
65173;BME280;51758;52.218;5.172;2022-07-23T10:35:44;101933.94;;;28.00;44.48
65173;BME280;51758;52.218;5.172;2022-07-23T10:38:20;101930.19;;;27.80;39.00
65173;BME280;51758;52.218;5.172;2022-07-23T10:40:59;101929.09;;;27.76;42.30
65173;BME280;51758;52.218;5.172;2022-07-23T10:43:28;101925.66;;;28.06;45.13
65173;BME280;51758;52.218;5.172;2022-07-23T10:46:20;101921.31;;;27.65;39.58
65173;BME280;51758;52.218;5.172;2022-07-23T10:49:20;101922.41;;;27.84;40.42
65173;BME280;51758;52.218;5.172;2022-07-23T10:52:15;101920.25;;;27.66;40.19
65173;BME280;51758;52.218;5.172;2022-07-23T10:54:46;101916.78;;;27.86;43.79
65173;BME280;51758;52.218;5.172;2022-07-23T10:57:17;101916.78;;;27.96;38.42
65173;BME280;51758;52.218;5.172;2022-07-23T11:00:20;101913.13;;;27.19;38.50
65173;BME280;51758;52.218;5.172;2022-07-23T11:02:50;101916.34;;;27.16;42.83
65173;BME280;51758;52.218;5.172;2022-07-23T11:05:20;101912.69;;;27.53;44.41
65173;BME280;51758;52.218;5.172;2022-07-23T11:08:11;101921.88;;;26.94;40.11
65173;BME280;51758;52.218;5.172;2022-07-23T11:10:43;101915.06;;;26.76;42.79
65173;BME280;51758;52.218;5.172;2022-07-23T11:13:36;101916.84;;;27.08;38.92
65173;BME280;51758;52.218;5.172;2022-07-23T11:16:07;101922.94;;;26.93;39.63
65173;BME280;51758;52.218;5.172;2022-07-23T11:18:57;101913.53;;;27.58;41.50
65173;BME280;51758;52.218;5.172;2022-07-23T11:21:50;101908.44;;;28.43;41.11
65173;BME280;51758;52.218;5.172;2022-07-23T11:24:23;101910.31;;;27.87;39.23
65173;BME280;51758;52.218;5.172;2022-07-23T11:26:59;101914.28;;;27.54;39.46
65173;BME280;51758;52.218;5.172;2022-07-23T11:29:45;101914.91;;;27.81;41.25
65173;BME280;51758;52.218;5.172;2022-07-23T11:32:24;101926.66;;;28.86;43.04
65173;BME280;51758;52.218;5.172;2022-07-23T11:34:55;101912.94;;;29.81;40.92
65173;BME280;51758;52.218;5.172;2022-07-23T11:37:38;101917.81;;;30.42;37.05
65173;BME280;51758;52.218;5.172;2022-07-23T11:40:08;101920.75;;;30.93;38.62
65173;BME280;51758;52.218;5.172;2022-07-23T11:42:38;101926.78;;;30.85;36.79
65173;BME280;51758;52.218;5.172;2022-07-23T11:45:08;101927.19;;;30.97;38.50
65173;BME280;51758;52.218;5.172;2022-07-23T11:47:36;101925.59;;;31.39;34.36
65173;BME280;51758;52.218;5.172;2022-07-23T11:50:04;101930.72;;;31.17;36.11
65173;BME280;51758;52.218;5.172;2022-07-23T11:52:33;101922.84;;;31.95;32.87
65173;BME280;51758;52.218;5.172;2022-07-23T11:55:04;101915.47;;;30.07;33.67
65173;BME280;51758;52.218;5.172;2022-07-23T11:57:34;101919.75;;;30.89;36.15
65173;BME280;51758;52.218;5.172;2022-07-23T12:00:05;101916.03;;;31.98;35.83
65173;BME280;51758;52.218;5.172;2022-07-23T12:02:35;101916.69;;;31.76;34.75
65173;BME280;51758;52.218;5.172;2022-07-23T12:05:05;101915.50;;;32.74;33.02
65173;BME280;51758;52.218;5.172;2022-07-23T12:07:35;101921.16;;;33.14;29.45
65173;BME280;51758;52.218;5.172;2022-07-23T12:10:08;101913.03;;;31.29;32.53
65173;BME280;51758;52.218;5.172;2022-07-23T12:12:37;101911.22;;;31.25;32.54
65173;BME280;51758;52.218;5.172;2022-07-23T12:15:06;101912.28;;;31.43;29.73
65173;BME280;51758;52.218;5.172;2022-07-23T12:17:37;101916.53;;;31.49;29.61
65173;BME280;51758;52.218;5.172;2022-07-23T12:20:07;101906.25;;;32.02;33.03
65173;BME280;51758;52.218;5.172;2022-07-23T12:22:37;101894.56;;;32.80;31.45
65173;BME280;51758;52.218;5.172;2022-07-23T12:25:11;101897.31;;;29.49;33.82
65173;BME280;51758;52.218;5.172;2022-07-23T12:27:39;101901.09;;;30.16;33.31
65173;BME280;51758;52.218;5.172;2022-07-23T12:30:21;101888.06;;;31.56;33.36
65173;BME280;51758;52.218;5.172;2022-07-23T12:32:52;101900.38;;;33.23;31.27
65173;BME280;51758;52.218;5.172;2022-07-23T12:35:21;101861.53;;;34.17;29.97
65173;BME280;51758;52.218;5.172;2022-07-23T12:37:51;101889.94;;;32.53;30.64
65173;BME280;51758;52.218;5.172;2022-07-23T12:40:26;101893.78;;;31.74;30.25
65173;BME280;51758;52.218;5.172;2022-07-23T12:42:57;101890.72;;;31.94;31.31
65173;BME280;51758;52.218;5.172;2022-07-23T12:45:26;101860.53;;;32.05;29.90
65173;BME280;51758;52.218;5.172;2022-07-23T12:48:00;101886.47;;;33.16;30.79
65173;BME280;51758;52.218;5.172;2022-07-23T12:50:34;101878.84;;;33.54;28.52
65173;BME280;51758;52.218;5.172;2022-07-23T12:53:07;101878.50;;;33.33;29.81
65173;BME280;51758;52.218;5.172;2022-07-23T12:55:44;101882.16;;;31.54;31.85
65173;BME280;51758;52.218;5.172;2022-07-23T12:58:40;101888.69;;;33.28;28.49
65173;BME280;51758;52.218;5.172;2022-07-23T13:01:09;101886.09;;;33.45;28.79
65173;BME280;51758;52.218;5.172;2022-07-23T13:03:40;101891.66;;;31.52;32.30
65173;BME280;51758;52.218;5.172;2022-07-23T13:06:10;101887.50;;;31.78;27.78
65173;BME280;51758;52.218;5.172;2022-07-23T13:08:40;101884.66;;;31.69;30.87